Flight Track Log - Related Links

Times and Time Zones

All times are in EST time to prevent confusion due to time zone crossing. See the N173DS flight status page for this flight to view local times or setup timezone preferences in your user account.

Time Position Orientation Groundspeed Altitude Reporting Facility
EST Latitude Longitude Course Direction KTS MPH feet Rate Location/Type
Thu 10:25:42 AM 27.9833 -82.5333 360° North 159 183 700  Level Tampa TRACON
Thu 10:26:12 AM 28.0167 -82.5333 360° North 197 227 1,900 2,667 Climbing Tampa TRACON
Thu 10:27:12 AM 28.0500 -82.4833 53° Northeast 221 254 4,700 1,952 Climbing Tampa TRACON
Thu 10:28:18 AM 28.0333 -82.4167 106° East 272 313 6,000 667 Climbing Tampa TRACON
Thu 10:29:18 AM 28.0167 -82.3333 103° East 283 326 6,100 1,000 Climbing Tampa TRACON
Thu 10:30:24 AM 28.0000 -82.2333 101° East 262 302 8,100 2,095 Climbing Tampa TRACON
Thu 10:31:24 AM 28.0000 -82.1500 90° East 296 341 10,500 906 Climbing Tampa TRACON
Thu 10:33:36 AM 28.0333 -81.9167 81° East 301 346 11,000 155 Climbing Orlando TRACON
Thu 10:34:37 AM 28.0833 -81.8500 50° Northeast 310 357 11,000 -99 Level Orlando TRACON
Thu 10:35:37 AM 28.1500 -81.7833 41° Northeast 320 368 10,800 -762 Descending Orlando TRACON
Thu 10:36:43 AM 28.2333 -81.7333 28° Northeast 296 341 9,400 -1,667 Descending Orlando TRACON
Thu 10:37:43 AM 28.3167 -81.7167 10° North 290 334 7,300 -2,100 Descending Orlando TRACON
Thu 10:38:43 AM 28.3833 -81.6833 24° Northeast 268 308 5,200 -2,105 Descending Orlando TRACON
Thu 10:39:37 AM 28.4167 -81.6333 53° Northeast 238 274 3,300 -1,158 Descending Orlando TRACON
Thu 10:40:37 AM 28.4500 -81.5833 53° Northeast 190 219 3,000 -99 Descending Orlando TRACON
Thu 10:41:38 AM 28.4667 -81.5167 74° East 194 223 3,100 -157 Climbing Orlando TRACON
Thu 10:42:32 AM 28.4833 -81.4833 60° Northeast 167 192 2,700 -650 Descending Orlando TRACON
Thu 10:43:38 AM 28.5167 -81.4333 53° Northeast 157 181 1,800 -810 Descending Orlando TRACON
Thu 10:44:38 AM 28.5167 -81.3833 90° East 125 144 1,000 -700 Descending Orlando TRACON
Thu 10:45:38 AM 28.5333 -81.3500 60° Northeast 129 148 400 -600 Descending Orlando TRACON
Thu 10:47:00 AM 28.5455 -81.3329 66° East  Level Estimated

Login

Don't have an account? Register now (free) for customized features, flight alerts, and more!